sensor_id;sensor_type;location;lat;lon;timestamp;temperature;humidity
37446;DHT22;23307;51.136;14.942;2023-04-06T00:00:23;2.00;99.90
37446;DHT22;23307;51.136;14.942;2023-04-06T00:02:48;1.90;99.90
37446;DHT22;23307;51.136;14.942;2023-04-06T00:05:14;1.90;99.90
37446;DHT22;23307;51.136;14.942;2023-04-06T00:07:40;1.90;99.90
37446;DHT22;23307;51.136;14.942;2023-04-06T00:10:06;1.80;99.90
37446;DHT22;23307;51.136;14.942;2023-04-06T00:12:31;1.80;99.90
37446;DHT22;23307;51.136;14.942;2023-04-06T00:14:57;1.80;99.90
37446;DHT22;23307;51.136;14.942;2023-04-06T00:17:22;1.80;99.90
37446;DHT22;23307;51.136;14.942;2023-04-06T00:19:48;1.80;99.90
37446;DHT22;23307;51.136;14.942;2023-04-06T00:22:13;1.70;99.90
37446;DHT22;23307;51.136;14.942;2023-04-06T00:24:38;1.60;99.90
37446;DHT22;23307;51.136;14.942;2023-04-06T00:27:04;1.60;99.90
37446;DHT22;23307;51.136;14.942;2023-04-06T00:29:30;1.60;99.90
37446;DHT22;23307;51.136;14.942;2023-04-06T00:31:55;1.60;99.90
37446;DHT22;23307;51.136;14.942;2023-04-06T00:34:21;1.50;99.90
37446;DHT22;23307;51.136;14.942;2023-04-06T00:36:46;1.50;99.90
37446;DHT22;23307;51.136;14.942;2023-04-06T00:39:12;1.60;99.90
37446;DHT22;23307;51.136;14.942;2023-04-06T00:41:39;1.50;99.90
37446;DHT22;23307;51.136;14.942;2023-04-06T00:44:05;1.50;99.90
37446;DHT22;23307;51.136;14.942;2023-04-06T00:46:31;1.50;99.90
37446;DHT22;23307;51.136;14.942;2023-04-06T00:48:56;1.40;99.90
37446;DHT22;23307;51.136;14.942;2023-04-06T00:51:22;1.40;99.90
37446;DHT22;23307;51.136;14.942;2023-04-06T00:53:48;1.40;99.90
37446;DHT22;23307;51.136;14.942;2023-04-06T00:56:13;1.40;99.90
37446;DHT22;23307;51.136;14.942;2023-04-06T00:58:39;1.40;99.90
37446;DHT22;23307;51.136;14.942;2023-04-06T01:01:05;1.40;99.90
37446;DHT22;23307;51.136;14.942;2023-04-06T01:03:31;1.40;99.90
37446;DHT22;23307;51.136;14.942;2023-04-06T01:05:56;1.30;99.90
37446;DHT22;23307;51.136;14.942;2023-04-06T01:08:24;1.30;99.90
37446;DHT22;23307;51.136;14.942;2023-04-06T01:10:49;1.30;99.90
37446;DHT22;23307;51.136;14.942;2023-04-06T01:13:15;1.30;99.90
37446;DHT22;23307;51.136;14.942;2023-04-06T01:15:41;1.30;99.90
37446;DHT22;23307;51.136;14.942;2023-04-06T01:18:08;1.30;99.90
37446;DHT22;23307;51.136;14.942;2023-04-06T01:20:35;1.30;99.90
37446;DHT22;23307;51.136;14.942;2023-04-06T01:23:01;1.20;99.90
37446;DHT22;23307;51.136;14.942;2023-04-06T01:25:26;1.20;99.90
37446;DHT22;23307;51.136;14.942;2023-04-06T01:27:52;1.20;99.90
37446;DHT22;23307;51.136;14.942;2023-04-06T01:30:17;1.10;99.90
37446;DHT22;23307;51.136;14.942;2023-04-06T01:32:43;1.10;99.90
37446;DHT22;23307;51.136;14.942;2023-04-06T01:35:09;1.10;99.90
37446;DHT22;23307;51.136;14.942;2023-04-06T01:37:34;1.10;99.90
37446;DHT22;23307;51.136;14.942;2023-04-06T01:40:00;1.10;99.90
37446;DHT22;23307;51.136;14.942;2023-04-06T01:42:26;1.10;99.90
37446;DHT22;23307;51.136;14.942;2023-04-06T01:44:51;1.00;99.90
37446;DHT22;23307;51.136;14.942;2023-04-06T01:47:17;1.00;99.90
37446;DHT22;23307;51.136;14.942;2023-04-06T01:49:42;1.00;99.90
37446;DHT22;23307;51.136;14.942;2023-04-06T01:52:08;1.00;99.90
37446;DHT22;23307;51.136;14.942;2023-04-06T01:54:33;0.90;99.90
37446;DHT22;23307;51.136;14.942;2023-04-06T01:56:59;0.90;99.90
37446;DHT22;23307;51.136;14.942;2023-04-06T01:59:24;0.90;99.90
37446;DHT22;23307;51.136;14.942;2023-04-06T02:01:50;0.90;99.90
37446;DHT22;23307;51.136;14.942;2023-04-06T02:04:15;0.90;99.90
37446;DHT22;23307;51.136;14.942;2023-04-06T02:06:41;0.90;99.90
37446;DHT22;23307;51.136;14.942;2023-04-06T02:09:06;0.80;99.90
37446;DHT22;23307;51.136;14.942;2023-04-06T02:11:32;0.80;99.90
37446;DHT22;23307;51.136;14.942;2023-04-06T02:13:57;0.80;99.90
37446;DHT22;23307;51.136;14.942;2023-04-06T02:16:23;0.80;99.90
37446;DHT22;23307;51.136;14.942;2023-04-06T02:18:49;0.80;99.90
37446;DHT22;23307;51.136;14.942;2023-04-06T02:21:16;0.70;99.90
37446;DHT22;23307;51.136;14.942;2023-04-06T02:23:45;0.70;99.90
37446;DHT22;23307;51.136;14.942;2023-04-06T02:26:11;0.70;99.90
37446;DHT22;23307;51.136;14.942;2023-04-06T02:28:36;0.70;99.90
37446;DHT22;23307;51.136;14.942;2023-04-06T02:31:02;0.70;99.90
37446;DHT22;23307;51.136;14.942;2023-04-06T02:33:27;0.70;99.90
37446;DHT22;23307;51.136;14.942;2023-04-06T02:35:52;0.70;99.90
37446;DHT22;23307;51.136;14.942;2023-04-06T02:38:18;0.80;99.90
37446;DHT22;23307;51.136;14.942;2023-04-06T02:40:43;0.80;99.90
37446;DHT22;23307;51.136;14.942;2023-04-06T02:43:09;0.80;99.90
37446;DHT22;23307;51.136;14.942;2023-04-06T02:45:34;0.80;99.90
37446;DHT22;23307;51.136;14.942;2023-04-06T02:48:00;0.80;99.90
37446;DHT22;23307;51.136;14.942;2023-04-06T02:50:25;0.80;99.90
37446;DHT22;23307;51.136;14.942;2023-04-06T02:52:53;0.80;99.90
37446;DHT22;23307;51.136;14.942;2023-04-06T02:55:18;0.90;99.90
37446;DHT22;23307;51.136;14.942;2023-04-06T02:57:45;0.90;99.90
37446;DHT22;23307;51.136;14.942;2023-04-06T03:00:11;0.90;99.90
37446;DHT22;23307;51.136;14.942;2023-04-06T03:02:37;0.90;99.90
37446;DHT22;23307;51.136;14.942;2023-04-06T03:05:02;0.90;99.90
37446;DHT22;23307;51.136;14.942;2023-04-06T03:07:28;0.90;99.90
37446;DHT22;23307;51.136;14.942;2023-04-06T03:09:54;0.90;99.90
37446;DHT22;23307;51.136;14.942;2023-04-06T03:12:20;0.90;99.90
37446;DHT22;23307;51.136;14.942;2023-04-06T03:14:46;0.80;99.90
37446;DHT22;23307;51.136;14.942;2023-04-06T03:17:11;0.80;99.90
37446;DHT22;23307;51.136;14.942;2023-04-06T03:19:37;0.80;99.90
37446;DHT22;23307;51.136;14.942;2023-04-06T03:22:02;0.90;99.90
37446;DHT22;23307;51.136;14.942;2023-04-06T03:24:28;0.90;99.90
37446;DHT22;23307;51.136;14.942;2023-04-06T03:26:53;0.90;99.90
37446;DHT22;23307;51.136;14.942;2023-04-06T03:29:19;0.90;99.90
37446;DHT22;23307;51.136;14.942;2023-04-06T03:31:44;0.90;99.90
37446;DHT22;23307;51.136;14.942;2023-04-06T03:34:10;0.80;99.90
37446;DHT22;23307;51.136;14.942;2023-04-06T03:36:36;0.80;99.90
37446;DHT22;23307;51.136;14.942;2023-04-06T03:39:01;0.70;99.90
37446;DHT22;23307;51.136;14.942;2023-04-06T03:41:27;0.70;99.90
37446;DHT22;23307;51.136;14.942;2023-04-06T03:43:52;0.60;99.90
37446;DHT22;23307;51.136;14.942;2023-04-06T03:46:18;0.60;99.90
37446;DHT22;23307;51.136;14.942;2023-04-06T03:48:43;0.60;99.90
37446;DHT22;23307;51.136;14.942;2023-04-06T03:51:09;0.60;99.90
37446;DHT22;23307;51.136;14.942;2023-04-06T03:53:34;0.60;99.90
37446;DHT22;23307;51.136;14.942;2023-04-06T03:56:02;0.50;99.90
37446;DHT22;23307;51.136;14.942;2023-04-06T03:58:27;0.60;99.90
37446;DHT22;23307;51.136;14.942;2023-04-06T04:00:53;0.60;99.90
37446;DHT22;23307;51.136;14.942;2023-04-06T04:03:18;0.60;99.90
37446;DHT22;23307;51.136;14.942;2023-04-06T04:05:44;0.60;99.90
37446;DHT22;23307;51.136;14.942;2023-04-06T04:08:09;0.60;99.90
37446;DHT22;23307;51.136;14.942;2023-04-06T04:10:35;0.50;99.90
37446;DHT22;23307;51.136;14.942;2023-04-06T04:13:00;0.50;99.90
37446;DHT22;23307;51.136;14.942;2023-04-06T04:15:26;0.60;99.90
37446;DHT22;23307;51.136;14.942;2023-04-06T04:17:51;0.60;99.90
37446;DHT22;23307;51.136;14.942;2023-04-06T04:20:17;0.60;99.90
37446;DHT22;23307;51.136;14.942;2023-04-06T04:22:42;0.70;99.90
37446;DHT22;23307;51.136;14.942;2023-04-06T04:25:08;0.60;99.90
37446;DHT22;23307;51.136;14.942;2023-04-06T04:27:34;0.70;99.90
37446;DHT22;23307;51.136;14.942;2023-04-06T04:30:00;0.70;99.90
37446;DHT22;23307;51.136;14.942;2023-04-06T04:32:25;0.70;99.90
37446;DHT22;23307;51.136;14.942;2023-04-06T04:34:53;0.70;99.90
37446;DHT22;23307;51.136;14.942;2023-04-06T04:37:18;0.70;99.90
37446;DHT22;23307;51.136;14.942;2023-04-06T04:39:45;0.70;99.90
37446;DHT22;23307;51.136;14.942;2023-04-06T04:42:10;0.70;99.90
37446;DHT22;23307;51.136;14.942;2023-04-06T04:44:36;0.70;99.90
37446;DHT22;23307;51.136;14.942;2023-04-06T04:47:01;0.60;99.90
37446;DHT22;23307;51.136;14.942;2023-04-06T04:49:27;0.60;99.90
37446;DHT22;23307;51.136;14.942;2023-04-06T04:51:52;0.60;99.90
37446;DHT22;23307;51.136;14.942;2023-04-06T04:54:18;0.70;99.90
37446;DHT22;23307;51.136;14.942;2023-04-06T04:56:44;0.70;99.90
37446;DHT22;23307;51.136;14.942;2023-04-06T04:59:10;0.70;99.90
37446;DHT22;23307;51.136;14.942;2023-04-06T05:01:36;0.70;99.90
37446;DHT22;23307;51.136;14.942;2023-04-06T05:04:01;0.80;99.90
37446;DHT22;23307;51.136;14.942;2023-04-06T05:06:27;0.80;99.90
37446;DHT22;23307;51.136;14.942;2023-04-06T05:08:52;0.80;99.90
37446;DHT22;23307;51.136;14.942;2023-04-06T05:11:18;0.80;99.90
37446;DHT22;23307;51.136;14.942;2023-04-06T05:13:43;0.80;99.90
37446;DHT22;23307;51.136;14.942;2023-04-06T05:16:09;0.80;99.90
37446;DHT22;23307;51.136;14.942;2023-04-06T05:18:34;0.80;99.90
37446;DHT22;23307;51.136;14.942;2023-04-06T05:21:00;0.80;99.90
37446;DHT22;23307;51.136;14.942;2023-04-06T05:23:26;0.90;99.90
37446;DHT22;23307;51.136;14.942;2023-04-06T05:25:51;0.80;99.90
37446;DHT22;23307;51.136;14.942;2023-04-06T05:28:17;0.90;99.90
37446;DHT22;23307;51.136;14.942;2023-04-06T05:30:44;0.90;99.90
37446;DHT22;23307;51.136;14.942;2023-04-06T05:33:11;1.00;99.90
37446;DHT22;23307;51.136;14.942;2023-04-06T05:35:36;1.00;99.90
37446;DHT22;23307;51.136;14.942;2023-04-06T05:38:02;1.10;99.90
37446;DHT22;23307;51.136;14.942;2023-04-06T05:40:27;1.10;99.90
37446;DHT22;23307;51.136;14.942;2023-04-06T05:42:53;1.10;99.90
37446;DHT22;23307;51.136;14.942;2023-04-06T05:45:19;1.20;99.90
37446;DHT22;23307;51.136;14.942;2023-04-06T05:47:45;1.20;99.90
37446;DHT22;23307;51.136;14.942;2023-04-06T05:50:14;1.30;99.90
37446;DHT22;23307;51.136;14.942;2023-04-06T05:52:39;1.30;99.90
37446;DHT22;23307;51.136;14.942;2023-04-06T05:55:08;1.30;99.90
37446;DHT22;23307;51.136;14.942;2023-04-06T05:57:34;1.40;99.90
37446;DHT22;23307;51.136;14.942;2023-04-06T06:00:00;1.40;99.90
37446;DHT22;23307;51.136;14.942;2023-04-06T06:02:25;1.30;99.90
37446;DHT22;23307;51.136;14.942;2023-04-06T06:04:51;1.40;99.90
37446;DHT22;23307;51.136;14.942;2023-04-06T06:07:16;1.50;99.90
37446;DHT22;23307;51.136;14.942;2023-04-06T06:09:42;1.60;99.90
37446;DHT22;23307;51.136;14.942;2023-04-06T06:12:07;1.70;99.90
37446;DHT22;23307;51.136;14.942;2023-04-06T06:14:33;1.80;99.90
37446;DHT22;23307;51.136;14.942;2023-04-06T06:16:58;1.90;99.90
37446;DHT22;23307;51.136;14.942;2023-04-06T06:19:24;2.00;99.90
37446;DHT22;23307;51.136;14.942;2023-04-06T06:21:49;2.10;99.90
37446;DHT22;23307;51.136;14.942;2023-04-06T06:24:15;2.20;99.90
37446;DHT22;23307;51.136;14.942;2023-04-06T06:26:40;2.30;99.90
37446;DHT22;23307;51.136;14.942;2023-04-06T06:29:06;2.40;99.90
37446;DHT22;23307;51.136;14.942;2023-04-06T06:31:32;2.50;99.90
37446;DHT22;23307;51.136;14.942;2023-04-06T06:33:57;2.50;99.90
37446;DHT22;23307;51.136;14.942;2023-04-06T06:36:23;2.60;99.90
37446;DHT22;23307;51.136;14.942;2023-04-06T06:38:48;2.70;99.90
37446;DHT22;23307;51.136;14.942;2023-04-06T06:41:14;2.80;99.90
37446;DHT22;23307;51.136;14.942;2023-04-06T06:43:40;2.90;99.90
37446;DHT22;23307;51.136;14.942;2023-04-06T06:46:05;3.00;99.90
37446;DHT22;23307;51.136;14.942;2023-04-06T06:48:31;3.10;99.90
37446;DHT22;23307;51.136;14.942;2023-04-06T06:50:57;3.10;99.90
37446;DHT22;23307;51.136;14.942;2023-04-06T06:53:23;3.20;99.90
37446;DHT22;23307;51.136;14.942;2023-04-06T06:55:49;3.30;99.90
37446;DHT22;23307;51.136;14.942;2023-04-06T06:58:15;3.40;99.90
37446;DHT22;23307;51.136;14.942;2023-04-06T07:00:40;3.50;99.90
37446;DHT22;23307;51.136;14.942;2023-04-06T07:03:06;3.60;99.90
37446;DHT22;23307;51.136;14.942;2023-04-06T07:05:31;3.70;99.90
37446;DHT22;23307;51.136;14.942;2023-04-06T07:07:57;3.70;99.90
37446;DHT22;23307;51.136;14.942;2023-04-06T07:10:23;3.80;99.90
37446;DHT22;23307;51.136;14.942;2023-04-06T07:12:48;3.90;99.90
37446;DHT22;23307;51.136;14.942;2023-04-06T07:15:14;4.00;99.90
37446;DHT22;23307;51.136;14.942;2023-04-06T07:17:39;4.10;99.90
37446;DHT22;23307;51.136;14.942;2023-04-06T07:20:10;4.20;99.90
37446;DHT22;23307;51.136;14.942;2023-04-06T07:22:36;4.30;99.90
37446;DHT22;23307;51.136;14.942;2023-04-06T07:25:01;4.40;99.90
37446;DHT22;23307;51.136;14.942;2023-04-06T07:27:27;4.50;99.90
37446;DHT22;23307;51.136;14.942;2023-04-06T07:29:52;4.60;99.90
37446;DHT22;23307;51.136;14.942;2023-04-06T07:32:18;4.60;99.90
37446;DHT22;23307;51.136;14.942;2023-04-06T07:34:43;4.70;99.90
37446;DHT22;23307;51.136;14.942;2023-04-06T07:37:10;4.80;99.90
37446;DHT22;23307;51.136;14.942;2023-04-06T07:39:35;4.90;99.90
37446;DHT22;23307;51.136;14.942;2023-04-06T07:42:01;5.00;99.90
37446;DHT22;23307;51.136;14.942;2023-04-06T07:44:26;5.10;99.90
37446;DHT22;23307;51.136;14.942;2023-04-06T07:46:52;5.20;99.90
37446;DHT22;23307;51.136;14.942;2023-04-06T07:49:17;5.30;99.90
37446;DHT22;23307;51.136;14.942;2023-04-06T07:51:43;5.40;99.90
37446;DHT22;23307;51.136;14.942;2023-04-06T07:54:08;5.60;99.90
37446;DHT22;23307;51.136;14.942;2023-04-06T07:56:34;5.60;99.90
37446;DHT22;23307;51.136;14.942;2023-04-06T07:58:59;5.70;99.90
37446;DHT22;23307;51.136;14.942;2023-04-06T08:01:26;5.80;99.90
37446;DHT22;23307;51.136;14.942;2023-04-06T08:03:52;5.90;99.90
37446;DHT22;23307;51.136;14.942;2023-04-06T08:06:18;6.00;99.90
37446;DHT22;23307;51.136;14.942;2023-04-06T08:08:43;6.10;99.90
37446;DHT22;23307;51.136;14.942;2023-04-06T08:11:09;6.20;99.90
37446;DHT22;23307;51.136;14.942;2023-04-06T08:13:35;6.30;99.90
37446;DHT22;23307;51.136;14.942;2023-04-06T08:16:00;6.40;99.90
37446;DHT22;23307;51.136;14.942;2023-04-06T08:18:26;6.60;99.90
37446;DHT22;23307;51.136;14.942;2023-04-06T08:20:51;6.70;99.90
37446;DHT22;23307;51.136;14.942;2023-04-06T08:23:17;6.80;99.90
37446;DHT22;23307;51.136;14.942;2023-04-06T08:25:43;6.90;99.90
37446;DHT22;23307;51.136;14.942;2023-04-06T08:28:08;7.00;99.90
37446;DHT22;23307;51.136;14.942;2023-04-06T08:30:35;7.20;99.90
37446;DHT22;23307;51.136;14.942;2023-04-06T08:33:00;7.30;99.10
37446;DHT22;23307;51.136;14.942;2023-04-06T08:35:26;7.40;99.30
37446;DHT22;23307;51.136;14.942;2023-04-06T08:37:52;7.60;98.70
37446;DHT22;23307;51.136;14.942;2023-04-06T08:40:18;7.70;98.60
37446;DHT22;23307;51.136;14.942;2023-04-06T08:42:52;7.80;98.10
37446;DHT22;23307;51.136;14.942;2023-04-06T08:45:18;8.00;97.00
37446;DHT22;23307;51.136;14.942;2023-04-06T08:47:50;8.10;96.30
37446;DHT22;23307;51.136;14.942;2023-04-06T08:50:16;8.20;96.10
37446;DHT22;23307;51.136;14.942;2023-04-06T08:52:43;8.30;96.10
37446;DHT22;23307;51.136;14.942;2023-04-06T08:55:09;8.40;95.40
37446;DHT22;23307;51.136;14.942;2023-04-06T08:57:36;8.60;95.10
37446;DHT22;23307;51.136;14.942;2023-04-06T09:00:02;8.70;94.80
37446;DHT22;23307;51.136;14.942;2023-04-06T09:02:27;8.80;94.60
37446;DHT22;23307;51.136;14.942;2023-04-06T09:04:53;8.80;93.40
37446;DHT22;23307;51.136;14.942;2023-04-06T09:07:20;8.90;93.30
37446;DHT22;23307;51.136;14.942;2023-04-06T09:09:45;9.00;93.20
37446;DHT22;23307;51.136;14.942;2023-04-06T09:12:29;9.10;92.00
37446;DHT22;23307;51.136;14.942;2023-04-06T09:14:55;9.00;91.40
37446;DHT22;23307;51.136;14.942;2023-04-06T09:17:25;9.10;92.40
37446;DHT22;23307;51.136;14.942;2023-04-06T09:19:52;9.40;92.40
37446;DHT22;23307;51.136;14.942;2023-04-06T09:22:18;9.50;92.00
37446;DHT22;23307;51.136;14.942;2023-04-06T09:24:49;9.70;92.10
37446;DHT22;23307;51.136;14.942;2023-04-06T09:27:15;9.80;91.60
37446;DHT22;23307;51.136;14.942;2023-04-06T09:29:42;9.90;91.10
37446;DHT22;23307;51.136;14.942;2023-04-06T09:32:09;10.00;89.00
37446;DHT22;23307;51.136;14.942;2023-04-06T09:34:40;10.00;88.80
37446;DHT22;23307;51.136;14.942;2023-04-06T09:37:15;10.10;89.20
37446;DHT22;23307;51.136;14.942;2023-04-06T09:39:41;10.20;88.80
37446;DHT22;23307;51.136;14.942;2023-04-06T09:42:06;10.30;88.20
37446;DHT22;23307;51.136;14.942;2023-04-06T09:44:32;10.40;87.90
37446;DHT22;23307;51.136;14.942;2023-04-06T09:46:57;10.50;84.40
37446;DHT22;23307;51.136;14.942;2023-04-06T09:49:24;10.50;85.30
37446;DHT22;23307;51.136;14.942;2023-04-06T09:51:58;10.70;87.80
37446;DHT22;23307;51.136;14.942;2023-04-06T09:54:29;10.90;87.50
37446;DHT22;23307;51.136;14.942;2023-04-06T09:59:57;11.00;82.30
37446;DHT22;23307;51.136;14.942;2023-04-06T10:05:20;11.20;82.50
37446;DHT22;23307;51.136;14.942;2023-04-06T10:07:48;11.30;79.00
37446;DHT22;23307;51.136;14.942;2023-04-06T10:10:16;11.40;80.70
37446;DHT22;23307;51.136;14.942;2023-04-06T10:12:43;11.60;79.70
37446;DHT22;23307;51.136;14.942;2023-04-06T10:15:09;11.60;79.80
37446;DHT22;23307;51.136;14.942;2023-04-06T10:17:35;11.70;78.70
37446;DHT22;23307;51.136;14.942;2023-04-06T10:20:09;11.80;77.80
37446;DHT22;23307;51.136;14.942;2023-04-06T10:22:42;11.80;76.10
37446;DHT22;23307;51.136;14.942;2023-04-06T10:25:08;11.90;77.50
37446;DHT22;23307;51.136;14.942;2023-04-06T10:27:34;11.60;72.00
37446;DHT22;23307;51.136;14.942;2023-04-06T10:30:04;11.40;71.20
37446;DHT22;23307;51.136;14.942;2023-04-06T10:32:38;11.40;73.30
37446;DHT22;23307;51.136;14.942;2023-04-06T10:35:08;11.20;72.40
37446;DHT22;23307;51.136;14.942;2023-04-06T10:38:06;11.40;73.30
37446;DHT22;23307;51.136;14.942;2023-04-06T10:40:36;11.60;73.10
37446;DHT22;23307;51.136;14.942;2023-04-06T10:43:10;11.90;74.50
37446;DHT22;23307;51.136;14.942;2023-04-06T10:45:36;12.30;74.40
37446;DHT22;23307;51.136;14.942;2023-04-06T10:48:16;12.50;73.10
37446;DHT22;23307;51.136;14.942;2023-04-06T10:50:50;12.70;72.20
37446;DHT22;23307;51.136;14.942;2023-04-06T10:53:24;12.90;71.00
37446;DHT22;23307;51.136;14.942;2023-04-06T10:55:51;13.00;69.50
37446;DHT22;23307;51.136;14.942;2023-04-06T10:58:16;13.10;68.90
37446;DHT22;23307;51.136;14.942;2023-04-06T11:00:46;13.20;68.30
37446;DHT22;23307;51.136;14.942;2023-04-06T11:03:12;13.30;67.40
37446;DHT22;23307;51.136;14.942;2023-04-06T11:05:37;13.30;65.50
37446;DHT22;23307;51.136;14.942;2023-04-06T11:08:03;12.90;62.90
37446;DHT22;23307;51.136;14.942;2023-04-06T11:10:28;12.50;63.60
37446;DHT22;23307;51.136;14.942;2023-04-06T11:12:55;12.40;63.20
37446;DHT22;23307;51.136;14.942;2023-04-06T11:15:21;12.70;64.50
37446;DHT22;23307;51.136;14.942;2023-04-06T11:17:47;13.00;64.10
37446;DHT22;23307;51.136;14.942;2023-04-06T11:20:14;13.30;63.30
37446;DHT22;23307;51.136;14.942;2023-04-06T11:22:50;13.50;60.80
37446;DHT22;23307;51.136;14.942;2023-04-06T11:25:16;13.60;61.50
37446;DHT22;23307;51.136;14.942;2023-04-06T11:27:42;13.90;62.80
37446;DHT22;23307;51.136;14.942;2023-04-06T11:30:09;14.30;61.70
37446;DHT22;23307;51.136;14.942;2023-04-06T11:32:43;14.40;57.60
37446;DHT22;23307;51.136;14.942;2023-04-06T11:35:19;14.10;57.20
37446;DHT22;23307;51.136;14.942;2023-04-06T11:37:45;14.40;59.80
37446;DHT22;23307;51.136;14.942;2023-04-06T11:40:11;14.70;59.00
37446;DHT22;23307;51.136;14.942;2023-04-06T11:42:36;14.60;55.70
37446;DHT22;23307;51.136;14.942;2023-04-06T11:45:02;14.30;55.30
37446;DHT22;23307;51.136;14.942;2023-04-06T11:47:32;14.00;55.10
37446;DHT22;23307;51.136;14.942;2023-04-06T11:50:12;13.70;55.80
37446;DHT22;23307;51.136;14.942;2023-04-06T11:52:39;13.50;55.60
37446;DHT22;23307;51.136;14.942;2023-04-06T11:55:13;13.30;54.90
37446;DHT22;23307;51.136;14.942;2023-04-06T11:57:39;13.10;55.90
37446;DHT22;23307;51.136;14.942;2023-04-06T12:00:06;12.90;56.10
37446;DHT22;23307;51.136;14.942;2023-04-06T12:02:31;12.70;56.50
37446;DHT22;23307;51.136;14.942;2023-04-06T12:04:57;12.80;58.30
37446;DHT22;23307;51.136;14.942;2023-04-06T12:07:23;13.10;59.50
37446;DHT22;23307;51.136;14.942;2023-04-06T12:09:48;13.20;58.80
37446;DHT22;23307;51.136;14.942;2023-04-06T12:12:14;13.10;59.00
37446;DHT22;23307;51.136;14.942;2023-04-06T12:14:39;13.00;59.20
37446;DHT22;23307;51.136;14.942;2023-04-06T12:17:05;13.00;60.00
37446;DHT22;23307;51.136;14.942;2023-04-06T12:19:30;12.90;59.80
37446;DHT22;23307;51.136;14.942;2023-04-06T12:21:56;12.90;59.70
37446;DHT22;23307;51.136;14.942;2023-04-06T12:24:22;12.90;60.00
37446;DHT22;23307;51.136;14.942;2023-04-06T12:26:48;12.90;59.70
37446;DHT22;23307;51.136;14.942;2023-04-06T12:29:14;12.90;59.60
37446;DHT22;23307;51.136;14.942;2023-04-06T12:31:40;12.90;59.20
37446;DHT22;23307;51.136;14.942;2023-04-06T12:34:09;12.80;58.90
37446;DHT22;23307;51.136;14.942;2023-04-06T12:36:36;12.90;59.00
37446;DHT22;23307;51.136;14.942;2023-04-06T12:39:02;13.00;59.40
37446;DHT22;23307;51.136;14.942;2023-04-06T12:41:28;13.10;59.30
37446;DHT22;23307;51.136;14.942;2023-04-06T12:43:53;13.50;59.70
37446;DHT22;23307;51.136;14.942;2023-04-06T12:46:19;14.20;60.70
37446;DHT22;23307;51.136;14.942;2023-04-06T12:48:45;14.60;59.30
37446;DHT22;23307;51.136;14.942;2023-04-06T12:51:11;14.90;58.30
37446;DHT22;23307;51.136;14.942;2023-04-06T12:53:37;15.30;57.50
37446;DHT22;23307;51.136;14.942;2023-04-06T12:56:09;15.60;57.80
37446;DHT22;23307;51.136;14.942;2023-04-06T12:58:36;15.70;54.60
37446;DHT22;23307;51.136;14.942;2023-04-06T13:01:06;15.80;54.80
37446;DHT22;23307;51.136;14.942;2023-04-06T13:03:32;16.00;54.80
37446;DHT22;23307;51.136;14.942;2023-04-06T13:05:59;15.90;54.10
37446;DHT22;23307;51.136;14.942;2023-04-06T13:08:25;15.60;52.70
37446;DHT22;23307;51.136;14.942;2023-04-06T13:10:51;15.00;50.00
37446;DHT22;23307;51.136;14.942;2023-04-06T13:13:21;15.10;51.90
37446;DHT22;23307;51.136;14.942;2023-04-06T13:15:47;15.70;54.30
37446;DHT22;23307;51.136;14.942;2023-04-06T13:18:12;16.30;51.70
37446;DHT22;23307;51.136;14.942;2023-04-06T13:20:38;16.60;53.50
37446;DHT22;23307;51.136;14.942;2023-04-06T13:23:04;16.70;52.60
37446;DHT22;23307;51.136;14.942;2023-04-06T13:25:29;16.30;50.50
37446;DHT22;23307;51.136;14.942;2023-04-06T13:27:55;15.80;50.60
37446;DHT22;23307;51.136;14.942;2023-04-06T13:30:21;15.40;50.90
37446;DHT22;23307;51.136;14.942;2023-04-06T13:32:46;15.10;52.20
37446;DHT22;23307;51.136;14.942;2023-04-06T13:35:12;14.80;51.50
37446;DHT22;23307;51.136;14.942;2023-04-06T13:37:38;14.60;50.90
37446;DHT22;23307;51.136;14.942;2023-04-06T13:40:04;14.30;50.60
37446;DHT22;23307;51.136;14.942;2023-04-06T13:42:32;14.00;49.40
37446;DHT22;23307;51.136;14.942;2023-04-06T13:45:00;13.80;51.40
37446;DHT22;23307;51.136;14.942;2023-04-06T13:47:25;14.00;52.90
37446;DHT22;23307;51.136;14.942;2023-04-06T13:49:51;14.60;52.80
37446;DHT22;23307;51.136;14.942;2023-04-06T13:52:18;14.80;50.50
37446;DHT22;23307;51.136;14.942;2023-04-06T13:54:44;15.30;52.60
37446;DHT22;23307;51.136;14.942;2023-04-06T13:57:10;15.90;52.70
37446;DHT22;23307;51.136;14.942;2023-04-06T13:59:37;16.40;52.10
37446;DHT22;23307;51.136;14.942;2023-04-06T14:02:03;16.90;52.20
37446;DHT22;23307;51.136;14.942;2023-04-06T14:04:29;17.00;47.90
37446;DHT22;23307;51.136;14.942;2023-04-06T14:06:56;16.70;46.80
37446;DHT22;23307;51.136;14.942;2023-04-06T14:09:21;16.80;49.20
37446;DHT22;23307;51.136;14.942;2023-04-06T14:11:47;17.10;48.50
37446;DHT22;23307;51.136;14.942;2023-04-06T14:14:12;17.30;49.30
37446;DHT22;23307;51.136;14.942;2023-04-06T14:16:38;17.10;47.00
37446;DHT22;23307;51.136;14.942;2023-04-06T14:19:03;16.10;45.80
37446;DHT22;23307;51.136;14.942;2023-04-06T14:21:29;15.30;46.60
37446;DHT22;23307;51.136;14.942;2023-04-06T14:23:55;15.60;49.50
37446;DHT22;23307;51.136;14.942;2023-04-06T14:26:20;16.20;47.60
37446;DHT22;23307;51.136;14.942;2023-04-06T14:28:46;16.20;47.00
37446;DHT22;23307;51.136;14.942;2023-04-06T14:31:13;16.50;48.70
37446;DHT22;23307;51.136;14.942;2023-04-06T14:33:40;16.90;48.80
37446;DHT22;23307;51.136;14.942;2023-04-06T14:36:07;16.60;45.80
37446;DHT22;23307;51.136;14.942;2023-04-06T14:38:33;16.20;46.20
37446;DHT22;23307;51.136;14.942;2023-04-06T14:40:59;15.50;46.50
37446;DHT22;23307;51.136;14.942;2023-04-06T14:43:24;15.20;48.20
37446;DHT22;23307;51.136;14.942;2023-04-06T14:45:50;15.70;50.80
37446;DHT22;23307;51.136;14.942;2023-04-06T14:48:16;16.00;50.20
37446;DHT22;23307;51.136;14.942;2023-04-06T14:50:53;16.30;49.80
37446;DHT22;23307;51.136;14.942;2023-04-06T14:53:19;16.60;49.00
37446;DHT22;23307;51.136;14.942;2023-04-06T14:55:44;16.80;48.90
37446;DHT22;23307;51.136;14.942;2023-04-06T14:58:10;16.60;47.80
37446;DHT22;23307;51.136;14.942;2023-04-06T15:00:37;16.60;48.00
37446;DHT22;23307;51.136;14.942;2023-04-06T15:03:03;16.90;48.80
37446;DHT22;23307;51.136;14.942;2023-04-06T15:05:29;17.30;48.00
37446;DHT22;23307;51.136;14.942;2023-04-06T15:07:56;17.40;45.60
37446;DHT22;23307;51.136;14.942;2023-04-06T15:10:21;17.50;46.60
37446;DHT22;23307;51.136;14.942;2023-04-06T15:12:47;17.20;46.20
37446;DHT22;23307;51.136;14.942;2023-04-06T15:15:12;17.20;47.00
37446;DHT22;23307;51.136;14.942;2023-04-06T15:17:38;17.10;46.90
37446;DHT22;23307;51.136;14.942;2023-04-06T15:20:04;17.10;47.10
37446;DHT22;23307;51.136;14.942;2023-04-06T15:22:30;16.70;46.40
37446;DHT22;23307;51.136;14.942;2023-04-06T15:24:56;16.30;46.30